createdAt,value
2023-04-29T21:00:10.524Z,247.90
2023-04-29T21:04:13.719Z,247.95
2023-04-29T21:08:17.055Z,246.05
2023-04-29T21:12:20.059Z,244.70
2023-04-29T21:16:26.384Z,221.83
2023-04-29T21:20:30.604Z,206.20
2023-04-29T21:24:33.731Z,206.10
2023-04-29T21:28:36.766Z,205.45
2023-04-29T21:32:41.235Z,212.17
2023-04-29T21:36:44.217Z,203.43
2023-04-29T21:40:49.630Z,202.90
2023-04-29T21:44:52.733Z,203.45
2023-04-29T21:48:59.059Z,206.10
2023-04-29T21:53:02.030Z,209.05
2023-04-29T21:57:05.357Z,208.60
2023-04-29T22:01:26.285Z,207.40
2023-04-29T22:05:31.359Z,208.00
2023-04-29T22:09:34.392Z,208.20
2023-04-29T22:13:37.393Z,208.93
2023-04-29T22:17:40.694Z,211.07
2023-04-29T22:21:45.079Z,209.53
2023-04-29T22:25:48.094Z,210.00
2023-04-29T22:29:51.058Z,211.35
2023-04-29T22:33:54.193Z,211.50
2023-04-29T22:37:58.544Z,207.70
2023-04-29T22:42:02.942Z,209.52
2023-04-29T22:46:06.227Z,208.97
2023-04-29T22:50:10.225Z,209.25
2023-04-29T22:54:14.649Z,208.70
2023-04-29T22:58:17.645Z,210.60
2023-04-29T23:02:20.631Z,210.45
2023-04-29T23:06:23.931Z,212.60
2023-04-29T23:10:28.319Z,209.70
2023-04-29T23:14:31.456Z,211.40
2023-04-29T23:18:34.450Z,210.80
2023-04-29T23:22:37.441Z,210.83
2023-04-29T23:26:41.785Z,210.33
2023-04-29T23:38:51.074Z,211.10
2023-04-29T23:42:55.391Z,211.20
2023-04-29T23:46:58.374Z,210.70
2023-04-29T23:51:01.351Z,211.47
2023-04-29T23:55:04.845Z,210.17
2023-04-29T23:59:09.255Z,211.10
